Time;durP1;ratioP1;P1;durP2;ratioP2;P2;SDS_P1;SDS_P2;PMS_P1;PMS_P2;Temp;Humidity;BMP_temperature;BMP_pressure;BME280_temperature;BME280_humidity;BME280_pressure;Samples;Min_cycle;Max_cycle;Signal;HPM_P1;HPM_P2
2022/09/16 00:00:19;;;;;;;3.90;0.55;;;;;;;;;;4968519;28;20037;-69
2022/09/16 00:02:46;;;;;;;4.57;0.57;;;;;;;;;;4952920;28;20055;-70
2022/09/16 00:05:12;;;;;;;7.78;0.85;;;;;;;;;;4947270;28;20552;-70
2022/09/16 00:07:38;;;;;;;3.00;0.38;;;;;;;;;;4959224;28;20050;-69
2022/09/16 00:10:05;;;;;;;7.28;0.50;;;;;;;;;;4988030;28;20042;-70
2022/09/16 00:12:31;;;;;;;4.63;1.05;;;;;;;;;;4954629;28;20039;-69
2022/09/16 00:14:57;;;;;;;6.18;0.60;;;;;;;;;;4969946;28;20450;-69
2022/09/16 00:17:23;;;;;;;9.13;1.05;;;;;;;;;;4951333;28;20354;-70
2022/09/16 00:19:49;;;;;;;3.58;1.08;;;;;;;;;;4979693;28;20039;-69
2022/09/16 00:22:16;;;;;;;6.63;0.70;;;;;;;;;;4972068;28;20073;-70
2022/09/16 00:24:42;;;;;;;5.78;0.70;;;;;;;;;;4972717;28;20030;-69
2022/09/16 00:27:08;;;;;;;6.75;0.70;;;;;;;;;;4995280;28;20075;-70
2022/09/16 00:29:34;;;;;;;3.58;0.82;;;;;;;;;;4976106;28;20035;-70
2022/09/16 00:32:00;;;;;;;8.07;0.63;;;;;;;;;;4985634;28;20062;-70
2022/09/16 00:34:26;;;;;;;7.38;1.23;;;;;;;;;;4977599;28;20035;-70
2022/09/16 00:36:52;;;;;;;11.38;1.73;;;;;;;;;;4946930;29;20023;-70
2022/09/16 00:39:18;;;;;;;3.78;0.68;;;;;;;;;;4963617;28;20035;-70
2022/09/16 00:41:44;;;;;;;8.32;1.00;;;;;;;;;;4974664;28;20358;-70
2022/09/16 00:44:47;;;;;;;3.10;0.57;;;12.00;99.90;;;;;;4960229;28;20494;-70
2022/09/16 00:47:15;;;;;;;8.02;0.70;;;;;;;;;;4967287;28;20027;-70
2022/09/16 00:49:42;;;;;;;3.92;0.90;;;;;;;;;;4977171;28;20030;-70
2022/09/16 00:52:08;;;;;;;6.88;0.80;;;;;;;;;;4991360;28;20054;-70
2022/09/16 00:54:35;;;;;;;5.97;1.52;;;;;;;;;;4961612;28;20084;-70
2022/09/16 00:57:01;;;;;;;4.93;0.50;;;;;;;;;;4962369;28;20031;-70
2022/09/16 00:59:35;;;;;;;4.40;0.55;;;;;;;;;;4954360;28;20027;-70
2022/09/16 01:02:05;;;;;;;5.97;0.70;;;;;;;;;;4972514;28;20118;-71
2022/09/16 01:04:32;;;;;;;6.78;0.85;;;;;;;;;;4972163;28;20030;-71
2022/09/16 01:06:59;;;;;;;5.50;1.33;;;;;;;;;;4963139;28;20525;-70
2022/09/16 01:09:26;;;;;;;5.63;1.10;;;;;;;;;;4960856;28;20038;-71
2022/09/16 01:11:52;;;;;;;4.25;0.85;;;;;;;;;;4973092;28;20035;-70
2022/09/16 01:17:10;;;;;;;6.22;0.75;;;;;;;;;;4984976;28;20070;-71
2022/09/16 01:19:42;;;;;;;6.13;0.73;;;;;;;;;;4972036;28;20039;-70
2022/09/16 01:22:29;;;;;;;6.72;1.00;;;;;;;;;;4974272;28;20059;-71
2022/09/16 01:25:05;;;;;;;8.90;0.70;;;;;;;;;;4968518;28;20143;-71
2022/09/16 01:27:31;;;;;;;4.95;0.80;;;;;;;;;;4974347;28;20078;-70
2022/09/16 01:30:00;;;;;;;6.55;0.82;;;;;;;;;;4964377;28;20027;-71
2022/09/16 01:32:36;;;;;;;7.20;1.17;;;;;;;;;;4987643;28;20042;-70
2022/09/16 01:35:07;;;;;;;7.72;1.00;;;;;;;;;;4959298;28;20042;-72
2022/09/16 01:37:56;;;;;;;4.88;0.60;;;11.80;99.90;;;;;;4966078;28;20033;-70
2022/09/16 01:40:34;;;;;;;3.22;0.82;;;;;;;;;;4973281;28;20473;-70
2022/09/16 01:43:05;;;;;;;7.07;1.02;;;;;;;;;;4971292;28;20730;-70
2022/09/16 01:45:40;;;;;;;2.65;0.55;;;;;;;;;;4976386;28;20541;-70
2022/09/16 01:48:26;;;;;;;6.82;1.05;;;;;;;;;;4976654;28;20039;-70
2022/09/16 01:50:55;;;;;;;8.07;0.60;;;;;;;;;;4969700;28;20034;-70
2022/09/16 01:53:23;;;;;;;4.40;1.17;;;;;;;;;;4973403;28;20066;-70
2022/09/16 01:55:57;;;;;;;5.88;1.15;;;;;;;;;;4958763;28;20086;-70
2022/09/16 01:58:28;;;;;;;9.13;1.83;;;;;;;;;;4953108;28;20227;-70
2022/09/16 02:00:58;;;;;;;5.00;1.00;;;;;;;;;;4967610;28;20041;-70
2022/09/16 02:03:34;;;;;;;6.18;1.27;;;;;;;;;;4972996;28;20101;-70
2022/09/16 02:06:02;;;;;;;5.50;1.00;;;;;;;;;;4966472;28;20114;-70
2022/09/16 02:08:31;;;;;;;7.70;1.17;;;;;;;;;;4971428;28;20066;-69
2022/09/16 02:10:59;;;;;;;7.43;1.13;;;;;;;;;;4963977;28;20042;-70
2022/09/16 02:13:48;;;;;;;5.20;0.98;;;;;;;;;;4972940;28;20034;-71
2022/09/16 02:16:20;;;;;;;8.85;0.70;;;;;;;;;;4965580;28;20379;-71
2022/09/16 02:18:50;;;;;;;6.63;1.95;;;;;;;;;;4993638;28;20023;-71
2022/09/16 02:21:17;;;;;;;14.40;1.48;;;;;;;;;;4964487;28;20062;-71
2022/09/16 02:23:46;;;;;;;5.63;1.10;;;;;;;;;;4972680;28;20034;-71
2022/09/16 02:26:14;;;;;;;8.77;0.98;;;;;;;;;;4967643;28;20042;-71
2022/09/16 02:28:42;;;;;;;10.60;2.03;;;;;;;;;;4970311;28;20027;-70
2022/09/16 02:31:09;;;;;;;12.13;1.88;;;;;;;;;;4981667;28;20497;-70
2022/09/16 02:33:54;;;;;;;9.95;0.90;;;;;;;;;;4983356;28;20093;-71
2022/09/16 02:36:21;;;;;;;9.40;1.00;;;;;;;;;;4972335;28;20030;-70
2022/09/16 02:38:53;;;;;;;8.38;1.17;;;;;;;;;;4968160;28;20382;-70
2022/09/16 02:41:19;;;;;;;10.63;1.73;;;;;;;;;;4976294;28;20798;-70
2022/09/16 02:43:45;;;;;;;9.25;1.02;;;;;;;;;;4965860;28;20430;-70
2022/09/16 02:46:34;;;;;;;7.53;1.13;;;;;;;;;;4972292;28;20030;-71
2022/09/16 02:49:10;;;;;;;5.78;0.70;;;;;;;;;;4938385;28;20027;-70
2022/09/16 02:51:35;;;;;;;4.45;0.70;;;;;;;;;;4971482;28;20039;-71
2022/09/16 02:54:47;;;;;;;7.90;2.10;;;11.20;99.90;;;;;;4972956;28;20386;-70
2022/09/16 02:57:13;;;;;;;7.30;0.80;;;;;;;;;;4947243;28;20075;-71
2022/09/16 02:59:40;;;;;;;4.57;0.63;;;;;;;;;;4972517;28;20035;-72
2022/09/16 03:02:06;;;;;;;8.43;0.80;;;;;;;;;;4970125;28;20057;-70
2022/09/16 03:04:34;;;;;;;7.65;1.13;;;;;;;;;;4964174;28;20390;-72
2022/09/16 03:07:00;;;;;;;18.73;1.52;;;;;;;;;;4952044;28;20047;-71
2022/09/16 03:09:28;;;;;;;7.35;1.13;;;;;;;;;;4971677;28;20327;-70
2022/09/16 03:11:54;;;;;;;8.80;0.73;;;;;;;;;;4967733;28;20031;-71
2022/09/16 03:14:45;;;;;;;6.47;0.88;;;11.30;99.90;;;;;;4970951;28;20836;-70
2022/09/16 03:17:37;;;;;;;11.95;1.20;;;;;;;;;;4983623;28;20522;-71
2022/09/16 03:20:10;;;;;;;7.43;1.73;;;;;;;;;;4959870;28;20399;-70
2022/09/16 03:22:45;;;;;;;7.47;0.93;;;;;;;;;;4966582;28;20034;-70
2022/09/16 03:25:23;;;;;;;4.88;0.63;;;;;;;;;;4966754;28;20460;-70
2022/09/16 03:27:56;;;;;;;4.07;0.73;;;;;;;;;;4953413;29;20027;-71
2022/09/16 03:30:22;;;;;;;5.75;0.52;;;;;;;;;;4979311;28;20489;-71
2022/09/16 03:32:52;;;;;;;12.23;0.80;;;;;;;;;;4973126;28;20047;-70
2022/09/16 03:35:32;;;;;;;3.90;0.77;;;;;;;;;;4972529;28;20019;-70
2022/09/16 03:38:00;;;;;;;3.13;0.60;;;;;;;;;;4969333;28;20061;-71
2022/09/16 03:40:28;;;;;;;8.30;1.02;;;;;;;;;;4970350;28;20050;-70
2022/09/16 03:42:56;;;;;;;5.70;0.70;;;;;;;;;;4962047;28;20059;-70
2022/09/16 03:45:23;;;;;;;5.18;0.57;;;;;;;;;;4959304;28;20061;-70
2022/09/16 03:47:50;;;;;;;7.10;0.65;;;;;;;;;;4968185;28;20114;-70
2022/09/16 03:50:17;;;;;;;8.23;1.73;;;;;;;;;;4965928;28;20027;-70
2022/09/16 03:52:43;;;;;;;4.05;0.95;;;;;;;;;;4968488;28;20047;-70
2022/09/16 03:55:12;;;;;;;10.27;0.80;;;;;;;;;;4972393;28;20041;-69
2022/09/16 03:57:38;;;;;;;7.53;0.77;;;;;;;;;;4969904;28;20074;-70
2022/09/16 04:00:07;;;;;;;10.75;0.75;;;;;;;;;;4976170;28;20035;-70
2022/09/16 04:02:33;;;;;;;6.00;0.80;;;;;;;;;;4959371;28;20035;-70
2022/09/16 04:04:59;;;;;;;10.02;1.15;;;;;;;;;;4973364;28;20038;-71
2022/09/16 04:07:25;;;;;;;9.90;0.82;;;;;;;;;;4968357;28;20121;-70
2022/09/16 04:09:51;;;;;;;9.88;1.05;;;;;;;;;;4976008;28;20664;-70
2022/09/16 04:12:17;;;;;;;5.15;0.80;;;;;;;;;;4968175;28;20051;-72
2022/09/16 04:14:43;;;;;;;3.08;0.90;;;;;;;;;;4975490;28;20498;-71
2022/09/16 04:17:09;;;;;;;6.35;2.30;;;;;;;;;;4972266;28;20050;-71
2022/09/16 04:19:35;;;;;;;5.28;1.77;;;;;;;;;;4967241;28;20046;-70
2022/09/16 04:22:01;;;;;;;11.38;1.73;;;;;;;;;;4974903;28;20035;-71
2022/09/16 04:24:27;;;;;;;8.25;1.23;;;;;;;;;;4964289;28;20074;-71
2022/09/16 04:26:53;;;;;;;7.30;1.20;;;;;;;;;;4975503;28;20117;-71
2022/09/16 04:29:19;;;;;;;7.45;1.00;;;;;;;;;;4968073;28;20035;-70
2022/09/16 04:31:45;;;;;;;13.30;2.70;;;;;;;;;;4978739;28;20039;-70
2022/09/16 04:34:11;;;;;;;9.60;1.80;;;;;;;;;;4972142;28;20043;-72
2022/09/16 04:36:38;;;;;;;7.18;1.27;;;;;;;;;;4974523;28;20071;-71
2022/09/16 04:39:05;;;;;;;12.45;2.03;;;;;;;;;;4973937;28;20036;-70
2022/09/16 04:41:31;;;;;;;7.20;1.55;;;;;;;;;;4974548;28;20050;-70
2022/09/16 04:43:57;;;;;;;6.95;0.65;;;;;;;;;;4975586;28;20065;-71
2022/09/16 04:46:24;;;;;;;6.57;1.52;;;;;;;;;;4975277;28;20038;-70
2022/09/16 04:48:51;;;;;;;8.18;1.92;;;;;;;;;;4958019;28;20035;-70
2022/09/16 04:51:18;;;;;;;8.77;1.05;;;;;;;;;;4970619;28;20500;-72
2022/09/16 04:53:44;;;;;;;8.68;1.00;;;;;;;;;;4963212;28;20027;-71
2022/09/16 04:56:14;;;;;;;7.97;1.63;;;;;;;;;;4974253;28;20033;-71
2022/09/16 04:58:40;;;;;;;13.35;1.30;;;;;;;;;;4962943;28;20055;-69
2022/09/16 05:01:14;;;;;;;14.57;2.92;;;;;;;;;;4968645;28;20050;-73
2022/09/16 05:03:40;;;;;;;17.55;4.75;;;;;;;;;;4972161;28;20031;-72
2022/09/16 05:06:07;;;;;;;14.93;2.53;;;;;;;;;;4970030;28;20054;-72
2022/09/16 05:08:34;;;;;;;11.00;1.30;;;;;;;;;;4974186;28;20058;-71
2022/09/16 05:11:19;;;;;;;14.48;1.50;;;;;;;;;;4965891;28;20046;-71
2022/09/16 05:13:45;;;;;;;14.57;1.08;;;;;;;;;;4970980;28;20042;-71
2022/09/16 05:16:12;;;;;;;11.10;1.63;;;;;;;;;;4973908;28;20039;-71
2022/09/16 05:18:39;;;;;;;14.13;1.35;;;;;;;;;;4958984;28;20050;-71
2022/09/16 05:21:07;;;;;;;8.85;1.20;;;;;;;;;;4973758;28;20182;-71
2022/09/16 05:23:33;;;;;;;7.38;1.25;;;;;;;;;;4968980;28;20034;-69
2022/09/16 05:26:03;;;;;;;8.23;1.45;;;;;;;;;;4965720;28;20483;-70
2022/09/16 05:28:30;;;;;;;14.52;2.20;;;;;;;;;;4957799;28;20031;-70
2022/09/16 05:31:06;;;;;;;16.80;1.17;;;;;;;;;;4977494;28;20085;-73
2022/09/16 05:33:32;;;;;;;11.00;2.38;;;;;;;;;;4965867;28;20514;-71
2022/09/16 05:36:03;;;;;;;7.53;2.50;;;;;;;;;;4973137;28;20074;-71
2022/09/16 05:38:29;;;;;;;8.77;1.52;;;;;;;;;;4965306;28;20460;-70
2022/09/16 05:40:58;;;;;;;17.95;1.80;;;;;;;;;;4954949;28;20042;-72
2022/09/16 05:43:24;;;;;;;11.15;1.70;;;;;;;;;;4969125;28;20058;-70
2022/09/16 05:45:53;;;;;;;13.73;2.28;;;;;;;;;;4977379;28;20034;-70
2022/09/16 05:48:19;;;;;;;7.97;1.20;;;;;;;;;;4977332;28;20517;-71
2022/09/16 05:51:11;;;;;;;13.25;1.20;;;;;;;;;;4979833;28;20359;-70
2022/09/16 05:53:37;;;;;;;10.93;1.35;;;;;;;;;;4966208;28;20043;-71
2022/09/16 05:56:09;;;;;;;8.10;1.65;;;;;;;;;;4973424;28;24315;-73
2022/09/16 05:58:36;;;;;;;8.63;1.63;;;;;;;;;;4973371;28;20030;-71
2022/09/16 06:01:06;;;;;;;10.10;0.90;;;;;;;;;;4975050;28;20044;-73
2022/09/16 06:03:33;;;;;;;6.40;1.20;;;;;;;;;;4966834;28;20026;-70
2022/09/16 06:06:03;;;;;;;9.65;1.20;;;;;;;;;;4959362;28;20427;-70
2022/09/16 06:08:30;;;;;;;8.88;1.30;;;;;;;;;;4973165;28;20082;-70
2022/09/16 06:10:56;;;;;;;9.40;0.93;;;;;;;;;;4955498;28;20061;-70
2022/09/16 06:13:22;;;;;;;8.32;1.65;;;;;;;;;;4974574;28;20037;-70
2022/09/16 06:15:53;;;;;;;8.38;1.02;;;;;;;;;;4984637;28;20030;-70
2022/09/16 06:18:20;;;;;;;6.95;1.20;;;;;;;;;;4964584;28;20022;-69
2022/09/16 06:20:46;;;;;;;12.98;1.60;;;;;;;;;;4967970;28;20034;-70
2022/09/16 06:23:12;;;;;;;7.20;1.73;;;;;;;;;;4965624;28;20027;-71
2022/09/16 06:25:38;;;;;;;14.82;1.73;;;;;;;;;;4971374;28;20497;-68
2022/09/16 06:28:05;;;;;;;12.93;2.47;;;;;;;;;;4968741;28;20022;-70
2022/09/16 06:30:31;;;;;;;15.43;1.63;;;;;;;;;;4968824;28;20022;-70
2022/09/16 06:32:57;;;;;;;8.45;2.10;;;;;;;;;;4973277;28;20051;-70
2022/09/16 06:35:23;;;;;;;14.73;1.40;;;;;;;;;;4968285;28;20094;-70
2022/09/16 06:37:49;;;;;;;11.77;1.50;;;;;;;;;;4979101;28;20094;-69
2022/09/16 06:40:16;;;;;;;10.70;1.35;;;;;;;;;;4967291;28;20126;-70
2022/09/16 06:42:42;;;;;;;12.38;1.50;;;;;;;;;;4972623;28;20037;-69
2022/09/16 06:45:08;;;;;;;13.70;1.58;;;;;;;;;;4961404;28;20079;-70
2022/09/16 06:47:34;;;;;;;12.55;2.22;;;;;;;;;;4968983;28;20410;-70
2022/09/16 06:50:00;;;;;;;10.82;1.98;;;;;;;;;;4968581;28;20031;-71
2022/09/16 06:52:27;;;;;;;16.63;2.15;;;;;;;;;;4971680;28;20035;-71
2022/09/16 06:54:53;;;;;;;6.60;1.00;;;;;;;;;;4978866;28;20051;-71
2022/09/16 06:57:21;;;;;;;9.23;1.60;;;;;;;;;;4970120;28;20030;-71
2022/09/16 06:59:47;;;;;;;11.27;1.42;;;;;;;;;;4958159;28;20035;-71
2022/09/16 07:02:13;;;;;;;7.18;1.10;;;;;;;;;;4958174;28;20039;-70
2022/09/16 07:04:39;;;;;;;10.65;1.48;;;;;;;;;;4969870;28;20502;-70
2022/09/16 07:07:06;;;;;;;14.05;1.73;;;;;;;;;;4971249;28;20058;-72
2022/09/16 07:09:32;;;;;;;13.93;1.90;;;;;;;;;;4976145;28;20493;-71
2022/09/16 07:11:58;;;;;;;16.08;1.17;;;;;;;;;;4965381;28;20522;-72
2022/09/16 07:14:24;;;;;;;6.60;1.30;;;;;;;;;;4979563;28;20049;-71
2022/09/16 07:16:50;;;;;;;18.50;1.58;;;;;;;;;;4966742;28;20606;-72
2022/09/16 07:19:16;;;;;;;20.83;6.70;;;;;;;;;;4972393;28;20027;-71
2022/09/16 07:21:42;;;;;;;8.20;1.83;;;;;;;;;;4969786;28;20035;-72
2022/09/16 07:24:09;;;;;;;7.53;1.77;;;;;;;;;;4965655;28;20023;-72
2022/09/16 07:26:36;;;;;;;8.05;1.58;;;;;;;;;;4977043;28;20101;-72
2022/09/16 07:29:04;;;;;;;6.65;1.20;;;;;;;;;;4972743;28;20033;-72
2022/09/16 07:31:32;;;;;;;13.32;2.22;;;;;;;;;;4964319;28;20134;-72
2022/09/16 07:34:00;;;;;;;13.45;1.33;;;;;;;;;;4970374;28;20395;-72
2022/09/16 07:36:27;;;;;;;23.40;2.78;;;;;;;;;;4967820;28;20156;-72
2022/09/16 07:38:56;;;;;;;7.88;1.35;;;;;;;;;;4964000;28;20490;-72
2022/09/16 07:41:22;;;;;;;14.98;3.08;;;;;;;;;;4968161;28;20466;-72
2022/09/16 07:43:49;;;;;;;12.05;1.33;;;;;;;;;;4963931;28;20038;-73
2022/09/16 07:46:16;;;;;;;10.88;1.40;;;;;;;;;;4967222;28;20037;-73
2022/09/16 07:48:42;;;;;;;42.72;18.02;;;;;;;;;;4969417;28;20059;-73
2022/09/16 07:51:10;;;;;;;15.48;3.45;;;;;;;;;;4971198;28;20490;-74
2022/09/16 07:53:37;;;;;;;12.65;1.73;;;;;;;;;;4971220;28;20031;-74
2022/09/16 07:56:03;;;;;;;11.10;1.67;;;;;;;;;;4966685;28;20035;-74
2022/09/16 07:58:29;;;;;;;10.40;1.30;;;;;;;;;;4967202;28;20098;-71
2022/09/16 08:00:55;;;;;;;11.30;2.10;;;;;;;;;;4984691;28;20074;-73
2022/09/16 08:03:21;;;;;;;11.68;1.90;;;;;;;;;;4970448;28;20038;-72
2022/09/16 08:05:47;;;;;;;13.50;2.08;;;;;;;;;;4966280;28;20038;-73
2022/09/16 08:08:13;;;;;;;13.27;2.30;;;;;;;;;;4971164;28;20065;-73
2022/09/16 08:10:40;;;;;;;15.02;2.72;;;;;;;;;;4970199;28;20043;-73
2022/09/16 08:13:06;;;;;;;13.80;1.80;;;;;;;;;;4967743;28;20467;-73
2022/09/16 08:15:33;;;;;;;10.68;1.42;;;;;;;;;;4974290;28;20386;-73
2022/09/16 08:17:59;;;;;;;12.38;2.03;;;;;;;;;;4970819;28;20030;-74
2022/09/16 08:20:25;;;;;;;16.80;3.35;;;;;;;;;;4971675;28;20038;-73
2022/09/16 08:22:52;;;;;;;13.02;1.70;;;;;;;;;;4950826;28;20382;-73
2022/09/16 08:25:18;;;;;;;22.17;3.28;;;;;;;;;;4971623;28;20098;-73
2022/09/16 08:27:44;;;;;;;9.18;1.40;;;;;;;;;;4979106;28;20114;-74
2022/09/16 08:30:10;;;;;;;12.90;2.90;;;;;;;;;;4970344;28;20118;-77
2022/09/16 08:32:36;;;;;;;15.02;2.55;;;;;;;;;;4962392;28;20034;-73
2022/09/16 08:35:03;;;;;;;8.50;1.40;;;;;;;;;;4964177;28;20043;-73
2022/09/16 08:37:29;;;;;;;11.45;2.63;;;;;;;;;;4968041;28;20074;-74
2022/09/16 08:39:55;;;;;;;7.97;1.40;;;;;;;;;;4957638;28;20043;-74
2022/09/16 08:42:30;;;;;;;8.45;1.83;;;;;;;;;;4977513;28;20536;-74
2022/09/16 08:45:14;;;;;;;12.95;1.58;;;;;;;;;;4977815;28;20440;-74
2022/09/16 08:47:44;;;;;;;15.48;2.08;;;;;;;;;;4974824;28;20399;-74
2022/09/16 08:50:17;;;;;;;7.03;1.33;;;;;;;;;;4971726;28;20106;-74
2022/09/16 08:52:43;;;;;;;11.27;1.48;;;;;;;;;;4968013;28;20386;-74
2022/09/16 08:55:22;;;;;;;17.30;4.03;;;;;;;;;;4975715;28;20027;-74
2022/09/16 08:57:57;;;;;;;7.93;2.05;;;;;;;;;;4953391;28;20023;-74
2022/09/16 09:00:23;;;;;;;9.93;1.42;;;;;;;;;;4982738;28;20041;-74
2022/09/16 09:02:57;;;;;;;10.05;2.10;;;;;;;;;;4974656;28;20039;-74
2022/09/16 09:05:23;;;;;;;12.15;2.47;;;;;;;;;;4964336;28;20039;-74
2022/09/16 09:08:10;;;;;;;13.23;2.72;;;;;;;;;;4970577;28;20113;-74
2022/09/16 09:10:42;;;;;;;12.50;4.32;;;;;;;;;;4969163;28;20026;-73
2022/09/16 09:13:18;;;;;;;12.38;2.75;;;;;;;;;;4973351;28;20046;-72
2022/09/16 09:16:03;;;;;;;11.85;1.40;;;;;;;;;;4975007;28;20032;-72
2022/09/16 09:18:49;;;;;;;12.05;2.08;;;;;;;;;;4973463;28;20440;-74
2022/09/16 09:21:26;;;;;;;12.25;1.80;;;;;;;;;;4943420;28;20039;-72
2022/09/16 09:24:11;;;;;;;9.05;1.13;;;;;;;;;;4973448;28;20363;-73
2022/09/16 09:26:50;;;;;;;8.73;1.60;;;;;;;;;;4967543;28;20099;-74
2022/09/16 09:29:26;;;;;;;7.65;1.40;;;;;;;;;;4974751;28;20037;-72
2022/09/16 09:31:52;;;;;;;10.85;1.70;;;;;;;;;;4965345;28;20031;-72
2022/09/16 09:34:37;;;;;;;6.78;1.33;;;;;;;;;;4972416;28;20526;-71
2022/09/16 09:37:28;;;;;;;6.65;1.40;;;;;;;;;;4974636;28;20097;-71
2022/09/16 09:39:57;;;;;;;9.32;1.38;;;;;;;;;;4968421;28;20365;-71
2022/09/16 09:42:32;;;;;;;11.43;1.63;;;;;;;;;;4970439;28;20502;-70
2022/09/16 09:44:58;;;;;;;10.73;2.33;;;;;;;;;;4969351;28;20403;-72
2022/09/16 09:47:31;;;;;;;10.00;1.70;;;;;;;;;;4966478;28;20146;-72
2022/09/16 09:50:01;;;;;;;21.88;9.15;;;;;;;;;;4969219;28;20038;-73
2022/09/16 09:52:37;;;;;;;18.80;3.05;;;;;;;;;;4973093;28;20035;-73
2022/09/16 09:55:19;;;;;;;12.30;1.95;;;;;;;;;;4974005;28;20033;-73
2022/09/16 09:57:51;;;;;;;;;;;18.30;99.90;;;;;;4964108;28;20534;-73
2022/09/16 10:00:20;;;;;;;12.13;1.95;;;;;;;;;;4981152;28;20243;-73
2022/09/16 10:02:46;;;;;;;10.68;1.92;;;;;;;;;;4971929;28;20081;-73
2022/09/16 10:05:20;;;;;;;10.38;1.67;;;;;;;;;;4971794;28;20029;-73
2022/09/16 10:07:46;;;;;;;13.07;1.88;;;;;;;;;;4972594;28;20094;-73
2022/09/16 10:10:16;;;;;;;8.93;2.03;;;;;;;;;;4967803;28;20114;-73
2022/09/16 10:12:43;;;;;;;12.65;1.88;;;;;;;;;;4970997;28;20046;-74
2022/09/16 10:15:23;;;;;;;9.95;1.58;;;;;;;;;;4967079;28;20469;-73
2022/09/16 10:17:50;;;;;;;9.98;1.73;;;;;;;;;;4973209;28;20107;-72
2022/09/16 10:20:30;;;;;;;9.20;1.13;;;;;;;;;;4969682;28;20027;-73
2022/09/16 10:22:58;;;;;;;6.20;1.30;;;;;;;;;;4986156;28;20061;-73
2022/09/16 10:25:25;;;;;;;10.38;1.70;;;;;;;;;;4961986;28;20026;-73
2022/09/16 10:27:59;;;;;;;9.98;1.55;;;;;;;;;;4985753;28;20034;-72
2022/09/16 10:30:27;;;;;;;6.45;1.30;;;;;;;;;;4974850;28;20077;-74
2022/09/16 10:33:00;;;;;;;5.40;1.38;;;;;;;;;;4973620;28;20030;-74
2022/09/16 10:35:27;;;;;;;8.82;1.48;;;;;;;;;;4961499;28;20035;-74
2022/09/16 10:37:55;;;;;;;11.57;1.50;;;;;;;;;;4971903;28;20088;-74
2022/09/16 10:40:22;;;;;;;5.78;1.02;;;;;;;;;;4968610;28;20038;-74
2022/09/16 10:42:49;;;;;;;6.57;1.33;;;;;;;;;;4964685;28;20044;-74
2022/09/16 10:45:28;;;;;;;6.72;1.08;;;;;;;;;;4969639;28;20059;-73
2022/09/16 10:47:59;;;;;;;11.40;1.33;;;;;;;;;;4974181;28;20066;-75
2022/09/16 10:50:25;;;;;;;6.57;1.30;;;;;;;;;;4971170;28;20437;-76
2022/09/16 10:52:52;;;;;;;9.00;1.58;;;;;;;;;;4971230;28;20066;-74
2022/09/16 10:55:26;;;;;;;14.75;1.70;;;;;;;;;;4965228;28;20038;-74
2022/09/16 10:57:53;;;;;;;7.80;1.50;;;;;;;;;;4982780;28;20041;-74
2022/09/16 11:00:19;;;;;;;8.05;1.40;;;;;;;;;;4973375;28;20383;-74
2022/09/16 11:03:04;;;;;;;8.73;1.65;;;;;;;;;;4941938;28;20035;-74
2022/09/16 11:05:48;;;;;;;8.52;1.33;;;;;;;;;;4967956;28;20085;-75
2022/09/16 11:08:19;;;;;;;8.60;1.80;;;;;;;;;;4972161;28;20061;-75
2022/09/16 11:10:57;;;;;;;5.88;1.20;;;;;;;;;;4965974;28;20034;-74
2022/09/16 11:13:42;;;;;;;16.40;5.28;;;;;;;;;;4966458;28;20440;-73
2022/09/16 11:16:26;;;;;;;14.10;2.22;;;;;;;;;;4960600;28;20058;-73
2022/09/16 11:19:01;;;;;;;11.50;1.67;;;;;;;;;;4971432;28;20031;-73
2022/09/16 11:21:26;;;;;;;8.40;1.80;;;;;;;;;;4991919;28;20035;-73
2022/09/16 11:23:55;;;;;;;10.07;1.42;;;;;;;;;;4973005;28;20035;-74
2022/09/16 11:26:29;;;;;;;5.68;1.40;;;;;;;;;;4969684;28;20027;-74
2022/09/16 11:29:13;;;;;;;6.22;0.80;;;;;;;;;;4968842;28;20031;-74
2022/09/16 11:31:45;;;;;;;7.80;1.60;;;;;;;;;;4963172;28;20130;-73
2022/09/16 11:34:11;;;;;;;;;;;;;;;;;;4970712;28;20046;-73
2022/09/16 11:36:42;;;;;;;8.13;1.30;;;;;;;;;;4972018;28;19914;-73
2022/09/16 11:39:16;;;;;;;8.63;1.20;;;;;;;;;;4956727;28;20027;-74
2022/09/16 11:41:51;;;;;;;6.20;1.48;;;;;;;;;;4955821;28;20043;-74
2022/09/16 11:44:26;;;;;;;9.40;1.20;;;;;;;;;;4961325;28;20019;-74
2022/09/16 11:46:57;;;;;;;6.40;1.30;;;;;;;;;;4977242;28;20110;-74
2022/09/16 11:49:32;;;;;;;5.20;1.15;;;;;;;;;;4963412;28;20078;-74
2022/09/16 11:51:58;;;;;;;11.20;1.70;;;;;;;;;;4954955;28;20035;-74
2022/09/16 11:54:24;;;;;;;15.32;2.08;;;;;;;;;;4970421;28;20058;-74
2022/09/16 11:56:52;;;;;;;8.48;1.77;;;;;;;;;;4971926;28;20027;-73
2022/09/16 11:59:22;;;;;;;8.35;1.65;;;;;;;;;;4965727;28;20476;-73
2022/09/16 12:01:50;;;;;;;11.63;1.80;;;;;;;;;;4985967;28;20149;-73
2022/09/16 12:04:28;;;;;;;16.50;2.25;;;;;;;;;;4970213;28;20038;-73
2022/09/16 12:07:06;;;;;;;10.25;2.00;;;;;;;;;;4977313;28;20045;-73
2022/09/16 12:09:41;;;;;;;11.95;1.88;;;;;;;;;;4970729;28;20030;-73
2022/09/16 12:12:12;;;;;;;12.75;2.05;;;;;;;;;;4968372;28;20062;-73
2022/09/16 12:14:41;;;;;;;10.60;1.83;;;;;;;;;;4969758;28;20114;-73
2022/09/16 12:17:12;;;;;;;9.40;1.95;;;;;;;;;;4966964;28;20046;-73
2022/09/16 12:19:43;;;;;;;12.88;2.28;;;;;;;;;;4983790;28;20066;-73
2022/09/16 12:22:15;;;;;;;7.10;1.27;;;;;;;;;;4965885;28;20507;-73
2022/09/16 12:24:51;;;;;;;13.85;1.95;;;;;;;;;;4956639;28;20445;-72
2022/09/16 12:27:27;;;;;;;8.85;1.60;;;;;;;;;;4968003;28;20034;-73
2022/09/16 12:29:56;;;;;;;12.35;1.98;;;;;;;;;;4974772;28;20034;-73
2022/09/16 12:32:42;;;;;;;15.85;2.05;;;;;;;;;;4974752;28;20479;-73
2022/09/16 12:35:31;;;;;;;13.43;1.83;;;;;;;;;;4975053;28;20147;-73
2022/09/16 12:37:57;;;;;;;13.85;1.73;;;;;;;;;;4961036;28;20046;-74
2022/09/16 12:40:25;;;;;;;18.10;2.53;;;;;;;;;;4970030;28;20553;-74
2022/09/16 12:43:23;;;;;;;9.82;1.55;;;;;;;;;;4974369;28;20382;-73
2022/09/16 12:45:58;;;;;;;17.25;2.10;;;;;;;;;;4938570;28;20482;-73
2022/09/16 12:49:03;;;;;;;16.55;2.28;;;18.50;99.90;;;;;;4990040;28;20090;-74
2022/09/16 12:52:03;;;;;;;13.02;2.30;;;18.40;99.90;;;;;;4968425;28;20106;-73
2022/09/16 12:54:44;;;;;;;14.55;2.30;;;;;;;;;;4937324;28;20061;-74
2022/09/16 12:57:17;;;;;;;11.45;2.33;;;;;;;;;;4974737;28;20034;-73
2022/09/16 12:59:50;;;;;;;13.02;2.13;;;;;;;;;;4960247;28;20035;-73
2022/09/16 13:02:18;;;;;;;16.85;2.47;;;;;;;;;;4971700;28;20035;-73
2022/09/16 13:04:46;;;;;;;19.48;3.60;;;;;;;;;;4971001;28;20061;-73
2022/09/16 13:07:23;;;;;;;16.52;3.13;;;;;;;;;;4973313;28;20092;-73
2022/09/16 13:09:59;;;;;;;13.65;2.42;;;;;;;;;;4974835;28;20031;-72
2022/09/16 13:12:26;;;;;;;16.45;2.85;;;;;;;;;;4966618;28;20126;-72
2022/09/16 13:15:47;;;;;;;15.10;2.30;;;18.00;99.90;;;;;;4973001;28;20081;-74
2022/09/16 13:18:13;;;;;;;17.67;2.67;;;;;;;;;;4927571;28;20376;-73
2022/09/16 13:20:40;;;;;;;15.95;2.08;;;;;;;;;;4973222;28;20038;-73
2022/09/16 13:23:11;;;;;;;14.05;2.20;;;;;;;;;;4955214;28;20086;-73
2022/09/16 13:25:46;;;;;;;16.98;4.13;;;;;;;;;;4971125;28;20510;-73
2022/09/16 13:28:25;;;;;;;18.17;3.03;;;;;;;;;;4961114;28;20027;-74
2022/09/16 13:30:51;;;;;;;14.20;2.15;;;;;;;;;;4978673;28;20036;-74
2022/09/16 13:33:17;;;;;;;12.25;2.38;;;;;;;;;;4958831;28;20090;-74
2022/09/16 13:35:45;;;;;;;23.33;9.52;;;;;;;;;;4966876;28;20027;-73
2022/09/16 13:38:14;;;;;;;17.33;3.83;;;;;;;;;;4961762;28;20406;-73
2022/09/16 13:40:52;;;;;;;21.63;2.53;;;;;;;;;;4971112;28;20373;-74
2022/09/16 13:43:27;;;;;;;15.57;2.38;;;;;;;;;;4967948;28;20568;-74
2022/09/16 13:46:01;;;;;;;16.15;2.03;;;;;;;;;;4962485;28;20521;-74
2022/09/16 13:48:27;;;;;;;12.05;2.78;;;;;;;;;;4965656;28;20031;-74
2022/09/16 13:50:56;;;;;;;16.35;3.45;;;;;;;;;;4977212;28;20518;-74
2022/09/16 13:53:33;;;;;;;15.13;3.35;;;;;;;;;;4986673;28;20110;-73
2022/09/16 13:56:06;;;;;;;19.08;2.80;;;;;;;;;;4959474;28;20031;-74
2022/09/16 13:58:38;;;;;;;19.40;3.38;;;;;;;;;;4972866;28;20082;-73
2022/09/16 14:01:20;;;;;;;18.98;2.67;;;;;;;;;;4971804;28;20046;-74
2022/09/16 14:03:46;;;;;;;;;;;;;;;;;;4972685;28;20034;-74
2022/09/16 14:06:20;;;;;;;18.58;2.60;;;;;;;;;;4974216;28;19910;-74
2022/09/16 14:09:04;;;;;;;13.55;2.35;;;;;;;;;;4986789;28;20051;-74
2022/09/16 14:11:39;;;;;;;17.95;2.67;;;;;;;;;;4972921;28;20039;-74
2022/09/16 14:14:16;;;;;;;14.50;3.10;;;;;;;;;;4966726;28;20530;-74
2022/09/16 14:16:43;;;;;;;19.15;3.97;;;;;;;;;;4996331;28;20034;-72
2022/09/16 14:19:18;;;;;;;12.75;2.13;;;;;;;;;;4964808;28;20019;-77
2022/09/16 14:21:44;;;;;;;18.42;3.72;;;;;;;;;;4972407;28;20042;-74
2022/09/16 14:24:17;;;;;;;15.60;2.55;;;;;;;;;;4983920;28;20041;-73
2022/09/16 14:26:53;;;;;;;12.65;2.47;;;;;;;;;;4970536;28;20517;-74
2022/09/16 14:29:20;;;;;;;13.77;1.73;;;;;;;;;;4970651;28;20034;-73
2022/09/16 14:31:47;;;;;;;11.40;2.47;;;;;;;;;;4965542;28;20039;-73
2022/09/16 14:34:15;;;;;;;12.13;1.85;;;;;;;;;;4963341;28;20035;-73
2022/09/16 14:36:43;;;;;;;8.85;1.70;;;;;;;;;;4972264;28;20045;-74
2022/09/16 14:39:14;;;;;;;13.45;2.13;;;;;;;;;;4968659;28;20081;-72
2022/09/16 14:41:44;;;;;;;12.18;2.03;;;;;;;;;;4971607;28;20367;-73
2022/09/16 14:44:16;;;;;;;18.15;4.00;;;;;;;;;;4967812;28;20062;-73
2022/09/16 14:46:43;;;;;;;17.42;2.20;;;;;;;;;;4984491;28;20061;-73
2022/09/16 14:49:11;;;;;;;17.75;3.20;;;;;;;;;;4985559;28;20031;-72
2022/09/16 14:51:38;;;;;;;16.95;3.80;;;;;;;;;;4964783;28;20031;-73
2022/09/16 14:54:04;;;;;;;15.68;2.75;;;;;;;;;;4972408;28;20070;-74
2022/09/16 14:56:30;;;;;;;16.55;2.33;;;;;;;;;;4966721;28;20525;-74